Time;durP1;ratioP1;P1;durP2;ratioP2;P2;SDS_P1;SDS_P2;PMS_P1;PMS_P2;Temp;Humidity;BMP_temperature;BMP_pressure;BME280_temperature;BME280_humidity;BME280_pressure;Samples;Min_cycle;Max_cycle;Signal;HPM_P1;HPM_P2
2022/12/05 00:02:20;;;;;;;29.17;16.98;;;5.10;99.90;;;;;;5074215;28;20047;-73
2022/12/05 00:04:45;;;;;;;28.20;16.30;;;5.10;99.90;;;;;;5075824;28;20062;-73
2022/12/05 00:07:11;;;;;;;27.58;15.50;;;5.20;99.90;;;;;;5076131;28;20520;-73
2022/12/05 00:09:36;;;;;;;30.70;17.98;;;5.20;99.90;;;;;;5058558;28;20036;-73
2022/12/05 00:12:02;;;;;;;30.13;17.55;;;5.20;99.90;;;;;;5074712;28;20550;-74
2022/12/05 00:14:28;;;;;;;33.65;18.20;;;5.30;99.90;;;;;;5074687;28;20051;-73
2022/12/05 00:16:54;;;;;;;27.30;16.92;;;5.30;99.90;;;;;;5074174;28;20108;-74
2022/12/05 00:19:19;;;;;;;30.73;19.00;;;5.40;99.90;;;;;;5073694;28;20041;-74
2022/12/05 00:21:45;;;;;;;32.28;17.55;;;5.40;99.90;;;;;;5073700;28;20036;-74
2022/12/05 00:24:13;;;;;;;35.75;19.25;;;5.20;99.90;;;;;;5074672;28;20079;-74
2022/12/05 00:26:39;;;;;;;36.35;19.05;;;5.30;99.90;;;;;;5075419;28;20084;-74
2022/12/05 00:29:04;;;;;;;35.42;17.42;;;5.40;99.90;;;;;;5074723;28;20083;-74
2022/12/05 00:31:30;;;;;;;34.20;18.77;;;5.40;99.90;;;;;;5075682;28;20494;-74
2022/12/05 00:33:59;;;;;;;37.05;19.58;;;5.40;99.90;;;;;;5076326;28;20044;-74
2022/12/05 00:36:28;;;;;;;32.85;17.60;;;5.50;99.90;;;;;;5078409;28;20040;-74
2022/12/05 00:38:55;;;;;;;37.17;19.45;;;5.50;99.90;;;;;;5081244;28;20047;-74
2022/12/05 00:41:23;;;;;;;35.40;19.33;;;5.60;99.90;;;;;;5081158;28;20111;-74
2022/12/05 00:43:50;;;;;;;38.88;20.48;;;5.60;99.90;;;;;;5080447;28;20506;-74
2022/12/05 00:46:18;;;;;;;34.15;19.50;;;5.50;99.90;;;;;;5080916;28;20053;-74
2022/12/05 00:48:43;;;;;;;37.00;20.90;;;5.30;99.90;;;;;;5081135;28;20037;-74
2022/12/05 00:51:17;;;;;;;38.75;20.70;;;5.50;99.90;;;;;;5079677;28;20044;-75
2022/12/05 00:53:44;;;;;;;36.25;19.50;;;5.30;99.90;;;;;;5080989;28;20041;-74
2022/12/05 00:56:12;;;;;;;35.97;20.23;;;5.50;99.90;;;;;;5080634;28;20040;-74
2022/12/05 00:58:38;;;;;;;33.65;19.80;;;5.60;99.90;;;;;;5079474;28;20078;-74
2022/12/05 01:01:08;;;;;;;34.90;20.23;;;5.50;99.90;;;;;;5063373;28;20119;-74
2022/12/05 01:03:34;;;;;;;38.67;21.00;;;5.40;99.90;;;;;;5081971;28;20405;-74
2022/12/05 01:06:00;;;;;;;38.70;21.25;;;5.30;99.90;;;;;;5080638;28;20119;-74
2022/12/05 01:08:26;;;;;;;40.80;22.20;;;5.30;99.90;;;;;;5080899;28;20046;-74
2022/12/05 01:10:56;;;;;;;37.85;20.38;;;5.40;99.90;;;;;;5080643;28;20399;-74
2022/12/05 01:13:22;;;;;;;35.53;19.88;;;5.40;99.90;;;;;;5081058;28;20040;-74
2022/12/05 01:15:47;;;;;;;38.42;19.65;;;5.50;99.90;;;;;;5081011;28;20043;-74
2022/12/05 01:18:13;;;;;;;37.95;20.00;;;5.60;99.90;;;;;;5080301;28;20041;-74
2022/12/05 01:20:40;;;;;;;38.10;20.05;;;5.40;99.90;;;;;;5079884;28;20041;-74
2022/12/05 01:23:05;;;;;;;36.67;20.80;;;5.50;99.90;;;;;;5080014;28;20048;-74
2022/12/05 01:25:31;;;;;;;31.50;18.92;;;5.50;99.90;;;;;;5080024;28;20032;-74
2022/12/05 01:27:56;;;;;;;34.88;19.98;;;5.70;99.90;;;;;;5079391;28;20036;-74
2022/12/05 01:30:23;;;;;;;34.38;20.08;;;5.60;99.90;;;;;;5081378;28;20119;-74
2022/12/05 01:32:48;;;;;;;31.02;18.38;;;5.80;99.90;;;;;;5081413;28;20042;-74
2022/12/05 01:35:14;;;;;;;31.33;18.58;;;5.50;99.90;;;;;;5080323;28;20060;-74
2022/12/05 01:37:40;;;;;;;30.23;18.02;;;5.80;99.90;;;;;;5080644;28;20434;-74
2022/12/05 01:40:07;;;;;;;31.63;18.45;;;5.80;99.90;;;;;;5079450;28;20418;-74
2022/12/05 01:42:32;;;;;;;33.35;18.75;;;5.80;99.90;;;;;;5080041;28;20111;-74
2022/12/05 01:45:01;;;;;;;32.28;17.02;;;5.90;99.90;;;;;;5079777;28;20127;-74
2022/12/05 01:47:29;;;;;;;31.15;17.95;;;5.60;99.90;;;;;;5077310;28;20044;-74
2022/12/05 01:49:57;;;;;;;26.73;15.13;;;5.90;99.90;;;;;;5074004;28;20039;-74
2022/12/05 01:52:26;;;;;;;30.02;17.02;;;5.70;99.90;;;;;;5077118;28;20486;-74
2022/12/05 01:54:55;;;;;;;31.08;16.38;;;5.60;99.90;;;;;;5076052;28;20048;-73
2022/12/05 01:57:22;;;;;;;24.73;14.32;;;5.90;99.90;;;;;;5076743;28;20117;-74
2022/12/05 01:59:56;;;;;;;23.45;15.35;;;5.90;99.90;;;;;;5076373;28;20044;-74
2022/12/05 02:02:22;;;;;;;25.55;16.75;;;5.90;99.90;;;;;;5078416;28;20040;-74
2022/12/05 02:05:08;;;;;;;28.17;14.57;;;5.90;99.90;;;;;;5079358;28;20041;-74
2022/12/05 02:07:37;;;;;;;26.35;14.82;;;5.80;99.90;;;;;;5080277;28;20036;-74
2022/12/05 02:10:03;;;;;;;24.23;13.63;;;5.90;99.90;;;;;;5080168;28;20075;-74
2022/12/05 02:12:30;;;;;;;22.48;12.68;;;5.80;99.90;;;;;;5079675;28;20048;-74
2022/12/05 02:15:02;;;;;;;20.35;13.32;;;5.70;99.90;;;;;;5080525;28;20100;-74
2022/12/05 02:18:15;;;;;;;19.88;13.23;;;5.80;99.90;;;;;;5078634;28;20082;-74
2022/12/05 02:21:01;;;;;;;19.95;12.32;;;6.10;99.90;;;;;;5066086;28;20076;-74
2022/12/05 02:24:14;;;;;;;19.90;13.50;;;5.80;99.90;;;;;;5079660;28;20047;-74
2022/12/05 02:27:07;;;;;;;18.98;11.70;;;5.90;99.90;;;;;;5045933;28;20079;-74
2022/12/05 02:29:54;;;;;;;19.15;11.80;;;5.70;99.90;;;;;;5079644;28;20041;-76
2022/12/05 02:32:46;;;;;;;21.73;12.23;;;6.00;99.90;;;;;;5076634;28;20044;-74
2022/12/05 02:35:29;;;;;;;20.13;11.38;;;5.90;99.90;;;;;;5079603;28;20494;-74
2022/12/05 02:38:22;;;;;;;17.90;11.30;;;6.00;99.90;;;;;;5077939;28;20051;-74
2022/12/05 02:40:53;;;;;;;14.63;10.30;;;5.70;99.90;;;;;;5077878;28;20094;-74
2022/12/05 02:43:30;;;;;;;17.63;11.73;;;5.80;99.90;;;;;;5077980;28;20036;-74
2022/12/05 02:45:59;;;;;;;17.02;11.55;;;5.70;99.90;;;;;;5078607;28;20040;-74
2022/12/05 02:48:27;;;;;;;19.38;11.63;;;5.90;99.90;;;;;;5076810;28;20045;-74
2022/12/05 02:50:55;;;;;;;19.48;12.00;;;5.70;99.90;;;;;;5076675;28;20090;-74
2022/12/05 02:53:24;;;;;;;24.10;13.52;;;6.00;99.90;;;;;;5076941;28;20037;-74
2022/12/05 02:55:50;;;;;;;18.33;11.32;;;5.80;99.90;;;;;;5075472;28;20124;-73
2022/12/05 02:58:22;;;;;;;20.15;12.13;;;6.00;99.90;;;;;;5075818;28;20044;-73
2022/12/05 03:00:49;;;;;;;20.20;11.38;;;6.00;99.90;;;;;;5076312;28;20048;-74
2022/12/05 03:03:18;;;;;;;18.02;12.93;;;5.70;99.90;;;;;;5076490;28;20059;-74
2022/12/05 03:06:33;;;;;;;20.08;12.70;;;6.00;99.90;;;;;;5078025;28;20051;-75
2022/12/05 03:09:12;;;;;;;19.65;12.85;;;6.00;99.90;;;;;;5064490;28;20051;-74
2022/12/05 03:11:44;;;;;;;17.27;11.55;;;5.90;99.90;;;;;;5077267;28;20406;-74
2022/12/05 03:14:21;;;;;;;19.33;12.40;;;5.80;99.90;;;;;;5076397;28;20044;-74
2022/12/05 03:16:52;;;;;;;19.67;12.48;;;6.10;99.90;;;;;;5077486;28;20055;-74
2022/12/05 03:19:31;;;;;;;19.83;12.57;;;5.90;99.90;;;;;;5059974;28;20044;-74
2022/12/05 03:22:12;;;;;;;20.27;12.38;;;5.90;99.90;;;;;;5077168;28;20047;-74
2022/12/05 03:24:40;;;;;;;19.52;13.52;;;6.00;99.90;;;;;;5077859;28;20047;-74
2022/12/05 03:27:18;;;;;;;21.88;13.30;;;6.10;99.90;;;;;;5077585;28;20041;-74
2022/12/05 03:29:53;;;;;;;22.00;13.18;;;5.90;99.90;;;;;;5079128;28;20075;-74
2022/12/05 03:32:25;;;;;;;21.02;14.07;;;5.90;99.90;;;;;;5076111;28;20036;-74
2022/12/05 03:35:16;;;;;;;20.00;12.05;;;5.60;99.90;;;;;;5075267;28;20515;-74
2022/12/05 03:38:04;;;;;;;19.45;12.55;;;5.90;99.90;;;;;;5076846;22;20064;-75
2022/12/05 03:41:07;;;;;;;18.65;12.18;;;5.90;99.90;;;;;;5071225;28;20089;-76
2022/12/05 03:43:51;;;;;;;17.70;11.70;;;5.60;99.90;;;;;;5070105;28;20039;-75
2022/12/05 03:46:28;;;;;;;22.63;11.27;;;5.70;99.90;;;;;;5068721;28;20135;-75
2022/12/05 03:49:07;;;;;;;17.38;11.05;;;5.70;99.90;;;;;;5070281;28;20043;-75
2022/12/05 03:51:46;;;;;;;17.02;10.57;;;5.70;99.90;;;;;;5070202;28;20048;-75
2022/12/05 03:54:28;;;;;;;14.63;10.05;;;6.00;99.90;;;;;;5070210;28;20047;-75
2022/12/05 03:57:01;;;;;;;15.27;9.77;;;5.90;99.90;;;;;;5070217;28;20127;-75
2022/12/05 03:59:47;;;;;;;15.95;10.85;;;5.50;99.90;;;;;;5070147;28;20097;-75
2022/12/05 04:02:46;;;;;;;17.30;11.18;;;5.50;99.90;;;;;;5070116;28;20559;-75
2022/12/05 04:05:36;;;;;;;18.65;10.95;;;5.60;99.90;;;;;;5070364;28;20076;-75
2022/12/05 04:08:06;;;;;;;19.27;12.27;;;6.00;99.90;;;;;;5070314;28;20048;-75
2022/12/05 04:10:47;;;;;;;19.13;12.68;;;5.90;99.90;;;;;;5071668;28;20451;-75
2022/12/05 04:13:21;;;;;;;15.18;10.45;;;5.70;99.90;;;;;;5073631;28;20097;-75
2022/12/05 04:18:40;;;;;;;18.77;10.18;;;5.90;99.90;;;;;;5074048;28;20110;-75
2022/12/05 04:25:31;;;;;;;12.07;8.52;;;5.70;99.90;;;;;;5073369;28;20051;-75
2022/12/05 04:26:43;;;;;;;13.55;8.63;;;5.50;99.90;;;;;;5073729;28;20105;-76
2022/12/05 04:29:18;;;;;;;12.93;8.15;;;5.90;99.90;;;;;;5074056;28;20036;-76
2022/12/05 04:31:50;;;;;;;12.50;8.13;;;5.90;99.90;;;;;;5073679;28;20055;-76
2022/12/05 04:34:18;;;;;;;13.88;8.95;;;6.00;99.90;;;;;;5074931;28;20064;-75
2022/12/05 04:36:56;;;;;;;16.80;10.13;;;6.00;99.90;;;;;;5073317;28;20097;-75
2022/12/05 04:39:36;;;;;;;15.82;9.00;;;5.50;99.90;;;;;;5073628;28;20058;-75
2022/12/05 04:42:14;;;;;;;15.68;9.82;;;5.90;99.90;;;;;;5073571;28;20036;-75
2022/12/05 04:44:53;;;;;;;13.52;8.90;;;5.60;99.90;;;;;;5073506;28;20044;-76
2022/12/05 04:47:24;;;;;;;17.00;8.25;;;5.50;99.90;;;;;;5073408;28;20149;-75
2022/12/05 04:49:51;;;;;;;13.30;8.88;;;5.60;99.90;;;;;;5073308;28;20166;-76
2022/12/05 04:52:17;;;;;;;15.98;9.45;;;5.60;99.90;;;;;;5072981;28;20044;-75
2022/12/05 04:54:51;;;;;;;15.40;9.25;;;5.50;99.90;;;;;;5056788;28;20041;-75
2022/12/05 04:57:28;;;;;;;14.70;10.02;;;5.50;99.90;;;;;;5072591;28;20048;-75
2022/12/05 04:59:54;;;;;;;14.20;8.48;;;5.40;99.90;;;;;;5073199;28;20060;-76
2022/12/05 05:02:27;;;;;;;17.38;9.25;;;5.50;99.90;;;;;;5072770;28;20040;-75
2022/12/05 05:04:56;;;;;;;15.82;8.85;;;5.50;99.90;;;;;;5073018;28;20037;-75
2022/12/05 05:07:22;;;;;;;16.38;9.40;;;5.60;99.90;;;;;;5072911;28;20133;-76
2022/12/05 05:09:47;;;;;;;16.15;10.07;;;5.70;99.90;;;;;;5056375;28;20596;-76
2022/12/05 05:12:13;;;;;;;19.27;9.85;;;5.70;99.90;;;;;;5073009;28;20043;-75
2022/12/05 05:14:39;;;;;;;13.50;8.90;;;5.90;99.90;;;;;;5055930;28;20090;-76
2022/12/05 05:17:04;;;;;;;14.32;9.02;;;5.70;99.90;;;;;;5072960;28;20054;-76
2022/12/05 05:19:30;;;;;;;13.38;7.80;;;5.60;99.90;;;;;;5072566;28;20494;-75
2022/12/05 05:21:55;;;;;;;13.77;8.95;;;5.70;99.90;;;;;;5072259;28;20040;-76
2022/12/05 05:24:22;;;;;;;15.82;8.05;;;5.60;99.90;;;;;;5072624;28;20044;-75
2022/12/05 05:26:48;;;;;;;12.10;8.07;;;5.70;99.90;;;;;;5072522;28;20040;-76
2022/12/05 05:29:14;;;;;;;12.32;7.70;;;5.70;99.90;;;;;;5072632;28;20047;-76
2022/12/05 05:31:40;;;;;;;13.70;8.63;;;5.80;99.90;;;;;;5072592;28;20037;-76
2022/12/05 05:34:07;;;;;;;15.05;9.98;;;5.90;99.90;;;;;;5072210;28;20064;-76
2022/12/05 05:36:33;;;;;;;14.95;8.73;;;5.50;99.90;;;;;;5072356;28;20045;-76
2022/12/05 05:39:01;;;;;;;12.43;7.78;;;5.70;99.90;;;;;;5072273;28;20181;-76
2022/12/05 05:41:32;;;;;;;15.70;9.55;;;5.90;99.90;;;;;;5073104;28;20455;-76
2022/12/05 05:43:58;;;;;;;13.70;9.80;;;5.70;99.90;;;;;;5072180;28;20037;-75
2022/12/05 05:46:26;;;;;;;14.63;9.45;;;5.70;99.90;;;;;;5072185;28;20508;-76
2022/12/05 05:48:52;;;;;;;14.15;9.20;;;5.70;99.90;;;;;;5072452;28;20062;-76
2022/12/05 05:51:18;;;;;;;14.27;9.25;;;5.80;99.90;;;;;;5055325;28;20040;-76
2022/12/05 05:53:44;;;;;;;18.35;8.73;;;6.00;99.90;;;;;;5071701;28;20044;-76
2022/12/05 05:56:16;;;;;;;15.85;9.43;;;5.70;99.90;;;;;;5071925;28;20047;-75
2022/12/05 05:58:41;;;;;;;15.05;9.88;;;5.50;99.90;;;;;;5071950;28;20098;-76
2022/12/05 06:01:10;;;;;;;13.68;9.02;;;6.00;99.90;;;;;;5055448;28;20048;-76
2022/12/05 06:03:36;;;;;;;14.50;9.77;;;5.90;99.90;;;;;;5054792;28;20097;-76
2022/12/05 06:06:05;;;;;;;17.15;10.95;;;5.90;99.90;;;;;;5071631;28;20043;-76
2022/12/05 06:08:33;;;;;;;14.02;9.68;;;5.80;99.90;;;;;;5071990;28;20036;-76
2022/12/05 06:10:58;;;;;;;14.88;9.70;;;5.90;99.90;;;;;;5071942;28;20040;-76
2022/12/05 06:13:24;;;;;;;13.82;9.48;;;5.90;99.90;;;;;;5055677;28;20490;-76
2022/12/05 06:15:51;;;;;;;14.25;9.07;;;5.70;99.90;;;;;;5054847;28;20608;-77
2022/12/05 06:18:16;;;;;;;15.18;9.88;;;5.70;99.90;;;;;;5071664;28;20040;-75
2022/12/05 06:20:54;;;;;;;13.85;9.15;;;5.60;99.90;;;;;;5072291;28;20041;-77
2022/12/05 06:23:20;;;;;;;15.80;9.93;;;6.00;99.90;;;;;;5072735;28;20048;-76
2022/12/05 06:25:49;;;;;;;15.18;9.18;;;5.60;99.90;;;;;;5071816;28;20523;-77
2022/12/05 06:28:16;;;;;;;13.38;8.38;;;5.60;99.90;;;;;;5071851;28;20116;-77
2022/12/05 06:30:41;;;;;;;16.35;9.23;;;6.00;99.90;;;;;;5072562;28;20052;-77
2022/12/05 06:33:07;;;;;;;13.27;8.10;;;5.80;99.90;;;;;;5070992;28;20044;-76
2022/12/05 06:35:32;;;;;;;12.15;8.60;;;5.60;99.90;;;;;;5073670;28;20402;-77
2022/12/05 06:37:58;;;;;;;15.68;9.50;;;5.90;99.90;;;;;;5072965;28;20494;-77
2022/12/05 06:40:24;;;;;;;14.27;9.80;;;5.60;99.90;;;;;;5072604;28;20045;-77
2022/12/05 06:42:49;;;;;;;15.52;10.13;;;6.10;99.90;;;;;;5072502;28;20123;-77
2022/12/05 06:45:15;;;;;;;19.38;12.52;;;5.80;99.90;;;;;;5072592;28;20037;-76
2022/12/05 06:47:40;;;;;;;18.95;12.40;;;5.60;99.90;;;;;;5070715;28;20452;-77
2022/12/05 06:50:06;;;;;;;18.58;11.70;;;6.00;99.90;;;;;;5062019;28;20044;-77
2022/12/05 06:52:32;;;;;;;19.70;12.05;;;6.00;99.90;;;;;;5055813;28;20128;-77
2022/12/05 06:54:58;;;;;;;21.75;13.50;;;5.70;99.90;;;;;;5035945;28;20072;-77
2022/12/05 06:57:24;;;;;;;21.40;14.00;;;5.70;99.90;;;;;;5053565;28;20049;-77
2022/12/05 06:59:50;;;;;;;25.63;14.90;;;6.00;99.90;;;;;;5050842;28;20483;-73
2022/12/05 07:02:16;;;;;;;22.77;12.20;;;5.90;99.90;;;;;;5050540;28;20044;-74
2022/12/05 07:04:41;;;;;;;23.42;13.48;;;5.60;99.90;;;;;;5050529;28;20521;-74
2022/12/05 07:07:07;;;;;;;27.02;14.18;;;5.70;99.90;;;;;;5050618;28;20037;-74
2022/12/05 07:09:44;;;;;;;29.27;13.50;;;6.10;99.90;;;;;;5050514;28;20133;-74
2022/12/05 07:12:15;;;;;;;25.40;14.52;;;6.00;99.90;;;;;;5050631;28;20387;-74
2022/12/05 07:14:42;;;;;;;26.63;14.40;;;6.10;99.90;;;;;;5050405;28;20044;-74
2022/12/05 07:17:07;;;;;;;27.58;15.77;;;5.80;99.90;;;;;;5050613;28;20064;-74
2022/12/05 07:19:33;;;;;;;30.13;16.48;;;5.60;99.90;;;;;;5050478;28;20499;-73
2022/12/05 07:21:59;;;;;;;24.35;15.35;;;6.00;99.90;;;;;;5050554;28;20155;-74
2022/12/05 07:24:24;;;;;;;34.75;19.50;;;5.80;99.90;;;;;;5049870;28;20040;-74
2022/12/05 07:26:50;;;;;;;31.15;16.88;;;6.00;99.90;;;;;;5050081;28;20043;-74
2022/12/05 07:29:16;;;;;;;29.15;17.42;;;5.90;99.90;;;;;;5050286;28;20052;-74
2022/12/05 07:31:41;;;;;;;28.38;15.57;;;5.60;99.90;;;;;;5050311;28;20067;-74
2022/12/05 07:34:07;;;;;;;32.20;15.10;;;5.90;99.90;;;;;;5049880;28;20466;-74
2022/12/05 07:36:33;;;;;;;26.92;14.50;;;5.80;99.90;;;;;;5033572;28;20090;-74
2022/12/05 07:38:58;;;;;;;26.27;14.10;;;5.70;99.90;;;;;;5050272;28;20041;-74
2022/12/05 07:41:26;;;;;;;24.98;14.15;;;6.00;99.90;;;;;;5050298;28;20037;-74
2022/12/05 07:43:53;;;;;;;25.42;14.00;;;6.00;99.90;;;;;;5050246;28;20099;-74
2022/12/05 07:46:19;;;;;;;30.00;14.90;;;5.90;99.90;;;;;;5054313;28;20083;-74
2022/12/05 07:48:46;;;;;;;28.02;14.07;;;6.00;99.90;;;;;;5061314;28;20032;-74
2022/12/05 07:51:12;;;;;;;25.35;12.75;;;5.60;99.90;;;;;;5073727;28;20037;-74
2022/12/05 07:53:40;;;;;;;20.60;10.93;;;5.60;99.90;;;;;;5074966;28;20048;-74
2022/12/05 07:56:07;;;;;;;22.00;11.32;;;5.90;99.90;;;;;;5073972;28;20072;-74
2022/12/05 07:58:33;;;;;;;24.50;11.85;;;5.90;99.90;;;;;;5057444;28;20036;-74
2022/12/05 08:01:07;;;;;;;23.08;10.70;;;5.60;99.90;;;;;;5073902;28;20451;-74
2022/12/05 08:03:33;;;;;;;24.08;11.70;;;5.70;99.90;;;;;;5057262;28;20040;-74
2022/12/05 08:06:03;;;;;;;19.08;12.00;;;6.00;99.90;;;;;;5073929;28;20119;-74
2022/12/05 08:08:29;;;;;;;20.65;10.25;;;5.70;99.90;;;;;;5075278;28;20186;-74
2022/12/05 08:10:55;;;;;;;24.63;12.77;;;5.60;99.90;;;;;;5073768;28;20162;-74
2022/12/05 08:13:20;;;;;;;27.20;14.82;;;5.60;99.90;;;;;;5073477;28;20033;-74
2022/12/05 08:15:46;;;;;;;23.60;12.73;;;6.10;99.90;;;;;;5073919;28;20452;-75
2022/12/05 08:18:11;;;;;;;29.27;13.05;;;5.80;99.90;;;;;;5073572;28;20567;-74
2022/12/05 08:20:37;;;;;;;27.58;13.35;;;5.70;99.90;;;;;;5073610;28;20045;-74
2022/12/05 08:23:02;;;;;;;20.40;11.65;;;5.80;99.90;;;;;;5073444;28;20044;-74
2022/12/05 08:25:32;;;;;;;19.33;12.65;;;5.70;99.90;;;;;;5073573;28;20040;-73
2022/12/05 08:27:58;;;;;;;20.60;11.90;;;5.80;99.90;;;;;;5073458;28;20041;-74
2022/12/05 08:30:23;;;;;;;21.13;12.70;;;5.80;99.90;;;;;;5073472;28;20040;-74
2022/12/05 08:32:49;;;;;;;22.63;12.90;;;5.70;99.90;;;;;;5073408;28;20082;-74
2022/12/05 08:35:15;;;;;;;23.42;14.82;;;6.00;99.90;;;;;;5073483;28;20083;-74
2022/12/05 08:37:40;;;;;;;28.55;15.98;;;6.00;99.90;;;;;;5074595;28;20494;-73
2022/12/05 08:40:07;;;;;;;25.20;14.75;;;6.00;99.90;;;;;;5073300;28;20132;-74
2022/12/05 08:42:32;;;;;;;26.70;15.15;;;5.70;99.90;;;;;;5073357;28;20037;-74
2022/12/05 08:44:58;;;;;;;23.20;13.50;;;5.80;99.90;;;;;;5073484;28;20410;-74
2022/12/05 08:47:23;;;;;;;23.85;14.25;;;5.70;99.90;;;;;;5073419;28;20041;-74
2022/12/05 08:49:49;;;;;;;23.48;13.27;;;6.10;99.90;;;;;;5073528;28;20047;-73
2022/12/05 08:52:14;;;;;;;19.63;11.77;;;5.70;99.90;;;;;;5073246;28;20040;-72
2022/12/05 08:54:40;;;;;;;19.55;10.13;;;5.70;99.90;;;;;;5072802;28;20051;-73
2022/12/05 08:57:05;;;;;;;21.80;12.32;;;5.80;99.90;;;;;;5072447;28;20127;-73
2022/12/05 08:59:31;;;;;;;24.60;12.25;;;6.00;99.90;;;;;;5072896;28;20037;-74
2022/12/05 09:01:56;;;;;;;22.65;12.52;;;5.70;99.90;;;;;;5072996;28;20037;-73
2022/12/05 09:04:22;;;;;;;21.38;11.02;;;5.90;99.90;;;;;;5072673;28;20040;-73
2022/12/05 09:06:47;;;;;;;22.77;11.48;;;6.00;99.90;;;;;;5072812;28;20414;-73
2022/12/05 09:09:13;;;;;;;19.48;12.15;;;5.70;99.90;;;;;;5072803;28;20040;-73
2022/12/05 09:11:45;;;;;;;20.63;10.95;;;5.90;99.90;;;;;;5072792;28;20040;-73
2022/12/05 09:14:11;;;;;;;19.05;11.48;;;5.90;99.90;;;;;;5072390;28;20044;-73
2022/12/05 09:16:37;;;;;;;18.90;10.85;;;5.70;99.90;;;;;;5072718;28;20045;-73
2022/12/05 09:19:04;;;;;;;15.98;11.45;;;5.80;99.90;;;;;;5056251;28;20494;-73
2022/12/05 09:21:30;;;;;;;24.80;12.70;;;5.80;99.90;;;;;;5072894;28;20128;-73
2022/12/05 09:23:59;;;;;;;208.73;37.92;;;5.90;99.90;;;;;;5072245;28;20033;-73
2022/12/05 09:26:27;;;;;;;20.63;10.85;;;6.10;99.90;;;;;;5055762;28;20039;-73
2022/12/05 09:28:53;;;;;;;21.23;11.55;;;5.80;99.90;;;;;;5072435;28;20036;-73
2022/12/05 09:31:21;;;;;;;21.17;12.23;;;5.80;99.90;;;;;;5072506;28;20089;-73
2022/12/05 09:33:47;;;;;;;20.33;10.18;;;5.90;99.90;;;;;;5072115;28;20036;-73
2022/12/05 09:36:19;;;;;;;21.23;13.48;;;6.00;99.90;;;;;;5095766;22;20086;-70
2022/12/05 09:38:45;;;;;;;23.08;11.98;;;6.00;99.90;;;;;;5055339;28;20036;-71
2022/12/05 09:44:28;;;;;;;16.83;9.43;;;6.10;99.90;;;;;;5072216;28;20127;-70
2022/12/05 09:46:59;;;;;;;18.40;9.80;;;5.90;99.90;;;;;;5053496;28;20052;-70
2022/12/05 09:49:26;;;;;;;13.88;9.10;;;5.70;99.90;;;;;;5054591;28;20044;-71
2022/12/05 09:51:53;;;;;;;16.70;8.80;;;5.80;99.90;;;;;;5054310;28;20111;-71
2022/12/05 09:54:20;;;;;;;19.42;10.32;;;5.80;99.90;;;;;;5072554;28;20072;-70
2022/12/05 09:56:49;;;;;;;16.23;9.95;;;5.80;99.90;;;;;;5073131;28;20037;-70
2022/12/05 09:59:15;;;;;;;19.65;10.02;;;5.80;99.90;;;;;;5055302;28;20124;-70
2022/12/05 10:02:25;;;;;;;16.92;8.65;;;6.00;99.90;;;;;;5055086;28;20141;-70
2022/12/05 10:04:59;;;;;;;16.35;8.80;;;6.10;99.90;;;;;;5072923;28;20482;-70
2022/12/05 10:07:54;;;;;;;17.25;9.90;;;5.70;99.90;;;;;;5054300;28;20039;-69
2022/12/05 10:10:26;;;;;;;22.45;10.90;;;6.10;99.90;;;;;;5055019;28;20066;-70
2022/12/05 10:13:02;;;;;;;17.98;10.48;;;6.00;99.90;;;;;;5072718;28;20394;-70
2022/12/05 10:15:42;;;;;;;20.55;11.75;;;6.10;99.90;;;;;;5072903;28;20135;-71
2022/12/05 10:18:08;;;;;;;21.15;12.02;;;5.80;99.90;;;;;;5038519;28;20102;-72
2022/12/05 10:21:01;;;;;;;21.02;11.32;;;5.90;99.90;;;;;;5054904;28;20045;-71
2022/12/05 10:23:33;;;;;;;21.10;12.18;;;6.00;99.90;;;;;;5072815;28;20039;-71
2022/12/05 10:26:04;;;;;;;25.05;11.93;;;5.80;99.90;;;;;;5054884;28;20037;-71
2022/12/05 10:28:35;;;;;;;19.25;10.18;;;6.10;99.90;;;;;;5072834;28;20036;-71
2022/12/05 10:31:06;;;;;;;19.33;11.20;;;6.10;99.90;;;;;;5054914;28;20510;-71
2022/12/05 10:33:39;;;;;;;17.55;10.98;;;6.20;99.90;;;;;;5072270;28;20166;-71
2022/12/05 10:36:10;;;;;;;18.27;12.05;;;5.80;99.90;;;;;;5054544;28;20048;-71
2022/12/05 10:38:36;;;;;;;24.85;14.25;;;6.10;99.90;;;;;;5072534;28;20043;-72
2022/12/05 10:41:08;;;;;;;23.85;15.43;;;6.00;99.90;;;;;;5037780;28;20040;-71
2022/12/05 10:43:36;;;;;;;23.55;15.00;;;5.80;99.90;;;;;;5068373;28;20029;-71
2022/12/05 10:46:03;;;;;;;27.00;15.90;;;5.90;99.90;;;;;;5072047;28;20107;-71
2022/12/05 10:48:30;;;;;;;24.25;14.75;;;6.10;99.90;;;;;;5050919;28;20042;-71
2022/12/05 10:50:56;;;;;;;22.42;14.23;;;6.20;99.90;;;;;;5051098;28;20044;-71
2022/12/05 10:53:44;;;;;;;20.25;12.98;;;6.10;99.90;;;;;;5051955;28;20049;-71
2022/12/05 10:56:39;;;;;;;20.75;11.57;;;5.90;99.90;;;;;;5051047;28;20106;-71
2022/12/05 10:59:07;;;;;;;19.98;11.85;;;6.10;99.90;;;;;;5050935;28;20347;-71
2022/12/05 11:01:35;;;;;;;21.63;11.80;;;6.10;99.90;;;;;;5034171;28;20037;-71
2022/12/05 11:04:24;;;;;;;18.83;11.38;;;5.80;99.90;;;;;;5051831;28;20071;-71
2022/12/05 11:06:53;;;;;;;20.10;11.77;;;6.10;99.90;;;;;;5050040;28;20110;-71
2022/12/05 11:09:22;;;;;;;24.20;12.38;;;5.70;99.90;;;;;;5051107;28;20076;-70
2022/12/05 11:12:19;;;;;;;19.52;11.57;;;5.80;99.90;;;;;;5050562;28;20522;-71
2022/12/05 11:15:05;;;;;;;21.80;11.30;;;6.00;99.90;;;;;;5050543;28;20130;-71
2022/12/05 11:17:39;;;;;;;26.92;10.95;;;6.00;99.90;;;;;;5050583;28;20395;-71
2022/12/05 11:20:16;;;;;;;19.75;10.93;;;6.00;99.90;;;;;;5050304;28;20412;-71
2022/12/05 11:22:44;;;;;;;22.60;10.98;;;5.90;99.90;;;;;;5050471;28;20036;-70
2022/12/05 11:25:32;;;;;;;21.55;11.63;;;5.70;99.90;;;;;;5051751;28;20045;-71
2022/12/05 11:28:16;;;;;;;22.10;10.95;;;5.80;99.90;;;;;;5050311;28;20525;-70
2022/12/05 11:31:04;;;;;;;21.30;10.85;;;6.20;99.90;;;;;;5017689;28;20128;-70
2022/12/05 11:33:33;;;;;;;22.27;10.90;;;5.80;99.90;;;;;;5050050;28;20036;-70
2022/12/05 11:36:22;;;;;;;21.52;11.20;;;6.00;99.90;;;;;;5051707;28;20041;-70
2022/12/05 11:38:48;;;;;;;22.20;12.25;;;5.60;99.90;;;;;;5050986;28;20059;-70
2022/12/05 11:41:47;;;;;;;22.67;10.45;;;5.80;99.90;;;;;;5050207;28;20414;-71
2022/12/05 11:44:31;;;;;;;23.60;11.20;;;5.60;99.90;;;;;;5046230;28;20049;-70
2022/12/05 11:47:37;;;;;;;22.50;11.15;;;5.80;99.90;;;;;;5051527;28;20042;-70
2022/12/05 11:50:23;;;;;;;20.17;10.13;;;5.80;99.90;;;;;;5050432;28;20045;-71
2022/12/05 11:53:36;;;;;;;17.33;9.75;;;5.60;99.90;;;;;;5051155;28;20080;-70
2022/12/05 11:56:24;;;;;;;17.95;9.25;;;6.00;99.90;;;;;;5050119;28;20558;-71
2022/12/05 11:59:07;;;;;;;21.40;11.48;;;5.60;99.90;;;;;;5049942;28;20067;-71
2022/12/05 12:02:02;;;;;;;20.83;10.05;;;6.00;99.90;;;;;;5050249;28;20510;-71
2022/12/05 12:04:47;;;;;;;22.73;10.60;;;5.70;99.90;;;;;;5049667;28;20041;-71
2022/12/05 12:07:29;;;;;;;17.27;9.40;;;5.60;99.90;;;;;;5050021;28;20091;-71
2022/12/05 12:10:31;;;;;;;16.48;9.20;;;5.60;99.90;;;;;;5049536;28;20056;-71
2022/12/05 12:13:24;;;;;;;17.40;8.63;;;5.90;99.90;;;;;;5018767;28;20061;-69
2022/12/05 12:16:01;;;;;;;17.40;9.25;;;5.60;99.90;;;;;;5058434;28;20051;-69
2022/12/05 12:19:07;;;;;;;13.68;7.05;;;6.10;99.90;;;;;;5063849;28;20119;-69
2022/12/05 12:22:04;;;;;;;15.18;8.05;;;5.90;99.90;;;;;;5060378;28;20035;-69
2022/12/05 12:25:07;;;;;;;15.63;8.23;;;6.00;99.90;;;;;;5068626;28;20036;-70
2022/12/05 12:27:35;;;;;;;13.05;7.13;;;6.10;99.90;;;;;;5071464;28;20064;-69
2022/12/05 12:30:34;;;;;;;16.30;8.90;;;5.80;99.90;;;;;;5071458;28;20044;-70
2022/12/05 12:33:18;;;;;;;14.10;7.47;;;5.90;99.90;;;;;;5056805;28;20130;-69
2022/12/05 12:35:54;;;;;;;13.50;6.93;;;6.00;99.90;;;;;;5076018;28;20040;-70
2022/12/05 12:38:49;;;;;;;15.27;7.68;;;5.70;99.90;;;;;;5075713;28;20126;-70
2022/12/05 12:41:41;;;;;;;16.90;7.82;;;6.10;99.90;;;;;;5075572;28;20040;-70
2022/12/05 12:44:36;;;;;;;15.25;8.32;;;5.80;99.90;;;;;;5054076;28;20037;-70
2022/12/05 12:47:23;;;;;;;13.13;7.80;;;5.80;99.90;;;;;;5067704;28;20088;-70
2022/12/05 12:50:14;;;;;;;13.57;7.45;;;6.10;99.90;;;;;;5069811;28;20052;-70
2022/12/05 12:53:10;;;;;;;17.45;9.40;;;6.10;99.90;;;;;;5074457;28;20052;-70
2022/12/05 12:55:55;;;;;;;15.35;8.27;;;6.00;99.90;;;;;;5042421;28;20095;-70
2022/12/05 12:58:51;;;;;;;17.48;8.00;;;6.10;99.90;;;;;;5036831;28;20049;-70
2022/12/05 13:01:38;;;;;;;14.10;8.35;;;6.00;99.90;;;;;;5055051;28;20072;-69
2022/12/05 13:04:11;;;;;;;18.30;9.20;;;5.70;99.90;;;;;;5037161;28;20086;-70
2022/12/05 13:06:55;;;;;;;15.63;8.50;;;5.90;99.90;;;;;;5028960;28;20032;-70
2022/12/05 13:09:34;;;;;;;125.90;24.40;;;6.00;99.90;;;;;;5063566;28;20080;-70
2022/12/05 13:12:10;;;;;;;27.17;9.98;;;6.10;99.90;;;;;;5075307;28;20049;-71
2022/12/05 13:14:38;;;;;;;24.05;9.30;;;5.80;99.90;;;;;;5075165;28;20410;-70
2022/12/05 13:17:07;;;;;;;21.05;9.75;;;5.80;99.90;;;;;;5075157;28;20036;-70
2022/12/05 13:19:46;;;;;;;18.45;9.57;;;5.80;99.90;;;;;;5057791;28;20521;-71